Time;durP1;ratioP1;P1;durP2;ratioP2;P2;SDS_P1;SDS_P2;PMS_P1;PMS_P2;Temp;Humidity;BMP_temperature;BMP_pressure;BME280_temperature;BME280_humidity;BME280_pressure;Samples;Min_cycle;Max_cycle;Signal;HPM_P1;HPM_P2
2021/12/10 00:01:22;;;;;;;191.17;69.80;;;;;;;;;;5143941;27;20845;-74
2021/12/10 00:03:56;;;;;;;193.80;73.07;;;;;;;;;;5160669;27;20518;-73
2021/12/10 00:06:26;;;;;;;213.40;73.27;;;;;;;;;;5160654;27;20454;-73
2021/12/10 00:08:55;;;;;;;211.18;73.07;;;;;;;;;;5160138;27;20509;-73
2021/12/10 00:11:26;;;;;;;224.77;74.88;;;;;;;;;;5160109;27;20591;-73
2021/12/10 00:13:54;;;;;;;181.93;68.67;;;;;;;;;;5160431;27;20248;-73
2021/12/10 00:16:22;;;;;;;171.40;69.20;;;;;;;;;;5157583;27;20448;-73
2021/12/10 00:18:54;;;;;;;225.70;75.83;;;;;;;;;;5160278;27;20690;-73
2021/12/10 00:21:23;;;;;;;217.83;77.70;;;;;;;;;;5160192;27;20824;-73
2021/12/10 00:23:54;;;;;;;229.63;77.27;;;;;;;;;;5160129;27;20457;-72
2021/12/10 00:26:22;;;;;;;212.03;73.77;;;;;;;;;;5157767;27;20453;-73
2021/12/10 00:28:50;;;;;;;233.65;77.80;;;;;;;;;;5139235;27;20490;-73
2021/12/10 00:31:29;;;;;;;223.73;75.20;;;;;;;;;;5139366;27;20203;-73
2021/12/10 00:34:00;;;;;;;254.98;76.88;;;;;;;;;;5139521;27;20558;-73
2021/12/10 00:36:27;;;;;;;236.23;75.97;;;;;;;;;;5139450;27;20584;-73
2021/12/10 00:38:59;;;;;;;244.00;81.17;;;;;;;;;;5138918;27;20458;-73
2021/12/10 00:41:27;;;;;;;276.58;80.57;;;;;;;;;;5139168;27;20464;-73
2021/12/10 00:43:54;;;;;;;234.05;77.20;;;;;;;;;;5138776;27;20188;-73
2021/12/10 00:46:22;;;;;;;155.83;66.33;;;;;;;;;;5139009;27;20212;-73
2021/12/10 00:48:50;;;;;;;270.17;80.70;;;;;;;;;;5138486;27;20518;-73
2021/12/10 00:51:17;;;;;;;217.63;71.78;;;;;;;;;;5138705;27;20204;-73
2021/12/10 00:53:47;;;;;;;326.92;84.10;;;;;;;;;;5138876;27;20204;-73
2021/12/10 00:56:16;;;;;;;373.95;90.65;;;;;;;;;;5137665;27;20283;-73
2021/12/10 00:58:44;;;;;;;263.88;80.55;;;;;;;;;;5137449;27;20197;-72
2021/12/10 01:01:14;;;;;;;208.17;73.57;;;;;;;;;;5138087;27;20278;-73
2021/12/10 01:03:43;;;;;;;183.03;67.83;;;;;;;;;;5138471;27;20724;-73
2021/12/10 01:06:12;;;;;;;189.07;72.83;;;;;;;;;;5137896;27;20472;-73
2021/12/10 01:08:40;;;;;;;195.97;70.37;;;;;;;;;;5138491;27;20484;-73
2021/12/10 01:11:11;;;;;;;197.73;73.40;;;;;;;;;;5138094;27;20454;-73
2021/12/10 01:13:46;;;;;;;206.37;73.87;;;;;;;;;;5137764;27;20523;-73
2021/12/10 01:23:43;;;;;;;196.88;67.00;;;;;;;;;;5137539;27;20529;-73
2021/12/10 01:24:51;;;;;;;196.38;69.43;;;;;;;;;;5138228;27;20503;-72
2021/12/10 01:27:29;;;;;;;201.30;69.03;;;;;;;;;;5137264;27;20224;-73
2021/12/10 01:29:59;;;;;;;153.60;62.90;;;;;;;;;;5137803;27;20461;-72
2021/12/10 01:32:27;;;;;;;176.07;74.10;;;;;;;;;;5138176;27;20534;-73
2021/12/10 01:34:58;;;;;;;156.27;60.87;;;;;;;;;;5137858;27;20458;-73
2021/12/10 01:37:26;;;;;;;183.77;68.80;;;;;;;;;;5137393;27;20454;-73
2021/12/10 01:39:55;;;;;;;182.80;68.20;;;;;;;;;;5138095;27;20460;-73
2021/12/10 01:42:36;;;;;;;178.67;67.63;;;;;;;;;;5156840;27;20456;-73
2021/12/10 01:45:07;;;;;;;178.67;70.07;;;;;;;;;;5159025;27;20484;-73
2021/12/10 01:47:36;;;;;;;176.00;67.73;;;;;;;;;;5158182;27;20580;-73
2021/12/10 01:50:04;;;;;;;167.20;63.90;;;;;;;;;;5158811;27;20489;-73
2021/12/10 01:52:32;;;;;;;156.57;64.00;;;;;;;;;;5157736;27;20649;-73
2021/12/10 01:55:00;;;;;;;208.55;72.10;;;;;;;;;;5158318;27;20460;-73
2021/12/10 01:57:30;;;;;;;190.10;68.10;;;;;;;;;;5158125;27;20203;-73
2021/12/10 01:59:58;;;;;;;168.73;67.67;;;;;;;;;;5157867;27;20210;-73
2021/12/10 02:02:29;;;;;;;181.87;68.27;;;;;;;;;;5158710;27;20445;-73
2021/12/10 02:04:56;;;;;;;172.50;63.70;;;;;;;;;;5152985;27;20457;-73
2021/12/10 02:07:26;;;;;;;186.50;71.30;;;;;;;;;;5137152;28;20546;-73
2021/12/10 02:09:54;;;;;;;169.93;67.37;;;;;;;;;;5138920;28;20468;-73
2021/12/10 02:12:22;;;;;;;173.67;72.10;;;;;;;;;;5138492;28;20425;-73
2021/12/10 02:14:58;;;;;;;169.37;65.23;;;;;;;;;;5137659;27;20442;-73
2021/12/10 02:17:30;;;;;;;190.83;69.43;;;;;;;;;;5159051;27;20832;-73
2021/12/10 02:19:58;;;;;;;183.97;67.80;;;;;;;;;;5159297;27;20804;-73
2021/12/10 02:22:27;;;;;;;186.20;66.63;;;;;;;;;;5158296;27;20453;-73
2021/12/10 02:24:54;;;;;;;173.20;65.53;;;;;;;;;;5159111;27;20222;-73
2021/12/10 02:27:22;;;;;;;164.15;63.88;;;;;;;;;;5157678;27;20937;-73
2021/12/10 02:29:50;;;;;;;163.10;62.93;;;;;;;;;;5157213;27;20191;-73
2021/12/10 02:32:18;;;;;;;164.15;65.38;;;;;;;;;;5158327;27;20816;-73
2021/12/10 02:34:49;;;;;;;171.00;64.67;;;;;;;;;;5158180;27;20267;-73
2021/12/10 02:37:17;;;;;;;171.07;69.00;;;;;;;;;;5158196;27;20520;-73
2021/12/10 02:39:46;;;;;;;178.73;69.97;;;;;;;;;;5158114;27;20520;-74
2021/12/10 02:42:14;;;;;;;179.03;66.10;;;;;;;;;;5157714;27;20901;-74
2021/12/10 02:44:41;;;;;;;164.53;62.90;;;;;;;;;;5158035;27;20956;-73
2021/12/10 02:47:09;;;;;;;162.53;62.07;;;;;;;;;;5158061;27;20437;-73
2021/12/10 02:49:37;;;;;;;181.63;66.03;;;;;;;;;;5157828;27;20525;-73
2021/12/10 02:52:05;;;;;;;171.18;64.97;;;;;;;;;;5158174;27;20452;-73
2021/12/10 02:54:35;;;;;;;182.65;65.38;;;;;;;;;;5154187;27;20573;-73
2021/12/10 02:57:06;;;;;;;166.40;64.10;;;;;;;;;;5137012;28;20196;-72
2021/12/10 02:59:36;;;;;;;176.53;67.93;;;;;;;;;;5146758;27;20865;-74
2021/12/10 03:02:05;;;;;;;185.93;64.10;;;;;;;;;;5146234;27;20781;-73
2021/12/10 03:04:34;;;;;;;161.07;59.13;;;;;;;;;;5157117;27;20456;-73
2021/12/10 03:07:03;;;;;;;193.93;69.87;;;;;;;;;;5140858;27;20454;-73
2021/12/10 03:09:34;;;;;;;169.93;64.47;;;;;;;;;;5151518;27;20452;-73
2021/12/10 03:12:02;;;;;;;175.93;65.60;;;;;;;;;;5156038;27;20509;-73
2021/12/10 03:14:31;;;;;;;180.30;65.77;;;;;;;;;;5140627;27;20445;-73
2021/12/10 03:17:04;;;;;;;180.57;67.53;;;;;;;;;;5141363;27;20492;-71
2021/12/10 03:19:32;;;;;;;177.53;64.67;;;;;;;;;;5159597;27;20468;-73
2021/12/10 03:22:00;;;;;;;187.37;66.23;;;;;;;;;;5161553;27;20457;-73
2021/12/10 03:24:29;;;;;;;179.73;64.40;;;;;;;;;;5144357;27;20448;-74
2021/12/10 03:27:03;;;;;;;183.83;67.10;;;;;;;;;;5141748;27;20442;-73
2021/12/10 03:29:33;;;;;;;178.77;61.57;;;;;;;;;;5150690;27;20579;-73
2021/12/10 03:32:02;;;;;;;188.20;65.50;;;;;;;;;;5160260;27;20583;-74
2021/12/10 03:34:30;;;;;;;178.27;65.13;;;;;;;;;;5143060;27;20446;-73
2021/12/10 03:36:59;;;;;;;185.30;66.30;;;;;;;;;;5139791;27;20710;-73
2021/12/10 03:39:32;;;;;;;156.90;62.80;;;;;;;;;;5140598;27;20837;-74
2021/12/10 03:42:19;;;;;;;162.17;63.20;;;;;;;;;;5141203;27;20552;-73
2021/12/10 03:44:48;;;;;;;169.70;61.88;;;;;;;;;;5141993;27;20457;-73
2021/12/10 03:47:16;;;;;;;140.60;59.73;;;;;;;;;;5160422;27;20476;-73
2021/12/10 03:49:44;;;;;;;169.20;61.87;;;;;;;;;;5161166;27;20444;-73
2021/12/10 03:52:11;;;;;;;178.40;65.53;;;;;;;;;;5160283;27;20433;-73
2021/12/10 03:54:40;;;;;;;189.03;64.23;;;;;;;;;;5161723;27;20445;-73
2021/12/10 03:57:08;;;;;;;338.92;82.00;;;;;;;;;;5161033;27;20537;-73
2021/12/10 03:59:36;;;;;;;251.02;74.22;;;;;;;;;;5159637;27;20195;-73
2021/12/10 04:02:06;;;;;;;194.83;67.47;;;;;;;;;;5147451;27;20203;-73
2021/12/10 04:04:38;;;;;;;165.07;61.43;;;;;;;;;;5140030;27;20457;-74
2021/12/10 04:07:08;;;;;;;150.83;59.83;;;;;;;;;;5139680;27;20789;-73
2021/12/10 04:09:36;;;;;;;107.67;51.43;;;;;;;;;;5139276;27;20556;-73
2021/12/10 04:12:07;;;;;;;192.00;64.15;;;;;;;;;;5139338;27;20921;-73
2021/12/10 04:14:34;;;;;;;118.20;54.37;;;;;;;;;;5138860;27;20560;-73
2021/12/10 04:17:02;;;;;;;114.63;55.70;;;;;;;;;;5158929;27;20485;-73
2021/12/10 04:19:32;;;;;;;230.02;67.65;;;;;;;;;;5159772;27;20445;-72
2021/12/10 04:22:00;;;;;;;169.33;63.20;;;;;;;;;;5160114;27;20199;-74
2021/12/10 04:24:30;;;;;;;124.87;56.70;;;;;;;;;;5160007;27;20449;-73
2021/12/10 04:26:59;;;;;;;183.60;69.30;;;;;;;;;;5155021;27;20463;-73
2021/12/10 04:32:24;;;;;;;177.67;66.17;;;;;;;;;;5136435;27;20554;-74
2021/12/10 04:34:55;;;;;;;159.80;61.10;;;;;;;;;;5150819;27;20543;-73
2021/12/10 04:37:27;;;;;;;158.10;66.00;;;;;;;;;;5158777;27;20456;-73
2021/12/10 04:39:55;;;;;;;143.80;58.43;;;;;;;;;;5158551;27;20505;-73
2021/12/10 04:42:35;;;;;;;137.10;56.43;;;;;;;;;;5158538;27;20449;-73
2021/12/10 04:45:04;;;;;;;143.50;60.33;;;;;;;;;;5159326;27;20440;-73
2021/12/10 04:47:33;;;;;;;137.63;55.60;;;;;;;;;;5159430;27;20453;-73
2021/12/10 04:50:02;;;;;;;140.47;59.67;;;;;;;;;;5156376;27;20532;-72
2021/12/10 04:52:30;;;;;;;143.17;60.17;;;;;;;;;;5140556;27;20450;-73
2021/12/10 04:54:59;;;;;;;141.50;58.90;;;;;;;;;;5151768;27;20845;-73
2021/12/10 04:57:30;;;;;;;152.87;60.73;;;;;;;;;;5149315;27;20461;-73
2021/12/10 04:59:59;;;;;;;145.90;59.20;;;;;;;;;;5144240;27;20433;-72
2021/12/10 05:02:27;;;;;;;149.23;62.20;;;;;;;;;;5159406;27;20464;-73
2021/12/10 05:04:58;;;;;;;149.83;61.63;;;;;;;;;;5128387;27;20450;-73
2021/12/10 05:07:30;;;;;;;145.13;58.17;;;;;;;;;;5138132;27;20465;-73
2021/12/10 05:10:00;;;;;;;127.20;54.80;;;;;;;;;;5144849;27;20469;-72
2021/12/10 05:12:28;;;;;;;141.67;59.70;;;;;;;;;;5153799;27;20456;-73
2021/12/10 05:14:58;;;;;;;141.63;58.40;;;;;;;;;;5152684;27;20465;-73
2021/12/10 05:17:30;;;;;;;146.57;59.70;;;;;;;;;;5152639;27;20720;-72
2021/12/10 05:20:01;;;;;;;148.37;59.87;;;;;;;;;;5157153;27;20437;-72
2021/12/10 05:22:34;;;;;;;124.23;54.07;;;;;;;;;;5146741;27;20445;-73
2021/12/10 05:25:03;;;;;;;141.93;59.67;;;;;;;;;;5158063;27;20559;-73
2021/12/10 05:27:33;;;;;;;162.00;64.07;;;;;;;;;;5160892;27;20509;-73
2021/12/10 05:30:06;;;;;;;155.10;59.87;;;;;;;;;;5159703;27;20533;-73
2021/12/10 05:32:34;;;;;;;213.27;71.40;;;;;;;;;;5159928;27;20524;-73
2021/12/10 05:35:02;;;;;;;196.23;67.73;;;;;;;;;;5144097;27;20460;-73
2021/12/10 05:37:32;;;;;;;238.27;70.13;;;;;;;;;;5141251;27;20489;-74
2021/12/10 05:40:00;;;;;;;144.57;59.77;;;;;;;;;;5160376;27;20445;-74
2021/12/10 05:42:28;;;;;;;143.30;62.93;;;;;;;;;;5158653;27;20461;-73
2021/12/10 05:44:55;;;;;;;162.40;61.80;;;;;;;;;;5151023;27;20442;-73
2021/12/10 05:47:23;;;;;;;164.60;64.20;;;;;;;;;;5140659;27;20478;-73
2021/12/10 05:49:55;;;;;;;174.57;65.20;;;;;;;;;;5142252;27;20757;-72
2021/12/10 05:52:23;;;;;;;165.45;64.93;;;;;;;;;;5159142;27;20757;-73
2021/12/10 05:54:53;;;;;;;177.40;66.97;;;;;;;;;;5160194;27;20202;-73
2021/12/10 05:57:24;;;;;;;187.30;66.53;;;;;;;;;;5159577;27;20708;-73
2021/12/10 05:59:53;;;;;;;264.93;73.27;;;;;;;;;;5159353;27;20720;-73
2021/12/10 06:02:21;;;;;;;155.77;63.57;;;;;;;;;;5158896;27;20444;-74
2021/12/10 06:04:59;;;;;;;205.10;70.30;;;;;;;;;;5158935;27;20452;-73
2021/12/10 06:07:29;;;;;;;155.73;60.50;;;;;;;;;;5158183;27;20459;-73
2021/12/10 06:10:00;;;;;;;124.67;54.40;;;;;;;;;;5159217;27;20560;-73
2021/12/10 06:12:28;;;;;;;117.90;58.13;;;;;;;;;;5158208;27;20453;-73
2021/12/10 06:14:56;;;;;;;109.23;53.43;;;;;;;;;;5158413;27;20751;-73
2021/12/10 06:17:32;;;;;;;113.50;54.87;;;;;;;;;;5151995;27;20449;-73
2021/12/10 06:20:04;;;;;;;118.93;55.93;;;;;;;;;;5145224;27;20448;-73
2021/12/10 06:22:35;;;;;;;102.97;52.03;;;;;;;;;;5156521;27;20457;-74
2021/12/10 06:25:04;;;;;;;118.07;55.07;;;;;;;;;;5156639;27;20450;-74
2021/12/10 06:27:32;;;;;;;104.80;55.07;;;;;;;;;;5156576;27;20461;-74
2021/12/10 06:30:01;;;;;;;116.27;57.23;;;;;;;;;;5157096;27;20485;-73
2021/12/10 06:32:28;;;;;;;116.97;56.77;;;;;;;;;;5156724;27;20525;-74
2021/12/10 06:34:58;;;;;;;118.93;56.63;;;;;;;;;;5154940;27;20448;-73
2021/12/10 06:37:26;;;;;;;118.97;58.33;;;;;;;;;;5155296;27;20535;-73
2021/12/10 06:39:55;;;;;;;135.87;59.17;;;;;;;;;;5154310;27;20437;-74
2021/12/10 06:42:34;;;;;;;136.53;58.47;;;;;;;;;;5151384;27;20449;-74
2021/12/10 06:45:07;;;;;;;125.60;58.63;;;;;;;;;;5146932;27;20838;-73
2021/12/10 06:47:40;;;;;;;112.37;57.03;;;;;;;;;;5154076;27;20464;-72
2021/12/10 06:50:17;;;;;;;112.87;55.17;;;;;;;;;;5159131;27;20567;-74
2021/12/10 06:52:48;;;;;;;114.30;54.50;;;;;;;;;;5158031;27;20467;-74
2021/12/10 06:55:17;;;;;;;115.00;59.00;;;;;;;;;;5158986;27;20443;-73
2021/12/10 06:57:47;;;;;;;114.13;56.17;;;;;;;;;;5159142;27;20852;-73
2021/12/10 07:00:19;;;;;;;112.67;54.93;;;;;;;;;;5155693;27;20444;-73
2021/12/10 07:02:48;;;;;;;82.20;48.37;;;;;;;;;;5137437;27;20449;-72
2021/12/10 07:05:19;;;;;;;87.40;48.07;;;;;;;;;;5137568;27;20916;-72
2021/12/10 07:07:51;;;;;;;92.57;51.50;;;;;;;;;;5158080;27;20449;-72
2021/12/10 07:10:23;;;;;;;92.70;51.30;;;;;;;;;;5159302;27;20599;-74
2021/12/10 07:12:59;;;;;;;83.37;49.07;;;;;;;;;;5161322;27;20517;-74
2021/12/10 07:15:27;;;;;;;98.10;50.13;;;;;;;;;;5159098;27;20476;-71
2021/12/10 07:17:55;;;;;;;90.43;52.17;;;;;;;;;;5158492;27;21057;-73
2021/12/10 07:20:24;;;;;;;89.23;53.77;;;;;;;;;;5158942;27;20441;-74
2021/12/10 07:22:52;;;;;;;87.57;51.33;;;;;;;;;;5151177;27;20446;-73
2021/12/10 07:25:21;;;;;;;88.20;48.83;;;;;;;;;;5153927;27;20468;-73
2021/12/10 07:27:49;;;;;;;76.23;45.83;;;;;;;;;;5160483;27;20841;-73
2021/12/10 07:30:19;;;;;;;92.53;48.30;;;;;;;;;;5160417;27;20859;-73
2021/12/10 07:32:49;;;;;;;87.37;48.00;;;;;;;;;;5157406;27;20501;-73
2021/12/10 07:35:17;;;;;;;87.90;47.67;;;;;;;;;;5157395;27;20460;-73
2021/12/10 07:37:49;;;;;;;88.93;50.17;;;;;;;;;;5157502;27;20447;-73
2021/12/10 07:40:23;;;;;;;84.73;50.53;;;;;;;;;;5156201;27;20445;-73
2021/12/10 07:43:08;;;;;;;79.70;46.53;;;;;;;;;;5158244;27;20509;-73
2021/12/10 07:45:47;;;;;;;93.93;45.77;;;;;;;;;;5158744;27;20457;-73
2021/12/10 07:48:18;;;;;;;79.80;46.87;;;;;;;;;;5158465;27;20448;-74
2021/12/10 07:50:58;;;;;;;106.70;51.30;;;;;;;;;;5159166;27;20568;-73
2021/12/10 07:53:26;;;;;;;79.63;47.63;;;;;;;;;;5155558;27;20453;-73
2021/12/10 07:56:04;;;;;;;74.20;47.80;;;;;;;;;;5159292;27;20480;-73
2021/12/10 07:58:32;;;;;;;81.87;46.30;;;;;;;;;;5157904;27;20465;-72
2021/12/10 08:01:14;;;;;;;83.00;49.77;;;;;;;;;;5160134;27;20445;-72
2021/12/10 08:03:42;;;;;;;81.97;48.27;;;;;;;;;;5159079;27;20824;-75
2021/12/10 08:06:14;;;;;;;87.10;50.67;;;;;;;;;;5158821;27;20529;-73
2021/12/10 08:08:44;;;;;;;80.40;47.23;;;;;;;;;;5150408;27;20458;-73
2021/12/10 08:11:17;;;;;;;82.57;50.67;;;;;;;;;;5137419;27;20530;-73
2021/12/10 08:13:46;;;;;;;85.70;49.00;;;;;;;;;;5144218;27;20548;-74
2021/12/10 08:16:16;;;;;;;85.60;49.97;;;;;;;;;;5158363;27;20509;-72
2021/12/10 08:18:45;;;;;;;95.90;50.37;;;;;;;;;;5146433;27;20846;-72
2021/12/10 08:21:30;;;;;;;99.50;54.03;;;;;;;;;;5136837;27;20450;-73
2021/12/10 08:23:58;;;;;;;94.33;52.20;;;;;;;;;;5136790;27;20522;-73
2021/12/10 08:26:28;;;;;;;84.90;56.30;;;;;;;;;;5137443;27;20445;-73
2021/12/10 08:28:56;;;;;;;82.13;50.67;;;;;;;;;;5156859;27;20460;-73
2021/12/10 08:31:29;;;;;;;90.67;49.13;;;;;;;;;;5157098;27;20469;-73
2021/12/10 08:33:58;;;;;;;84.83;49.60;;;;;;;;;;5156257;27;20493;-73
2021/12/10 08:36:29;;;;;;;97.40;57.00;;;;;;;;;;5158643;27;20449;-73
2021/12/10 08:39:02;;;;;;;99.10;53.60;;;;;;;;;;5157989;27;20460;-74
2021/12/10 08:41:37;;;;;;;88.70;52.50;;;;;;;;;;5157156;27;20728;-74
2021/12/10 08:44:05;;;;;;;88.50;51.67;;;;;;;;;;5152763;27;20475;-72
2021/12/10 08:46:42;;;;;;;94.03;51.50;;;;;;;;;;5157043;27;20483;-74
2021/12/10 08:49:13;;;;;;;86.07;51.93;;;;;;;;;;5157251;27;20515;-72
2021/12/10 08:51:43;;;;;;;99.63;55.63;;;;;;;;;;5155213;27;20932;-75
2021/12/10 08:54:14;;;;;;;85.53;49.63;;;;;;;;;;5134889;27;20462;-72
2021/12/10 08:56:44;;;;;;;93.73;52.10;;;;;;;;;;5135821;27;20811;-73
2021/12/10 08:59:11;;;;;;;82.07;50.07;;;;;;;;;;5137593;27;20510;-73
2021/12/10 09:01:57;;;;;;;83.80;48.20;;;;;;;;;;5136413;27;20871;-74
2021/12/10 09:04:29;;;;;;;85.73;50.80;;;;;;;;;;5154639;27;21035;-73
2021/12/10 09:07:00;;;;;;;88.77;50.50;;;;;;;;;;5142484;27;20549;-73
2021/12/10 09:09:33;;;;;;;80.13;49.13;;;;;;;;;;5147240;27;20545;-73
2021/12/10 09:12:05;;;;;;;99.03;58.23;;;;;;;;;;5157865;27;20494;-73
2021/12/10 09:14:39;;;;;;;85.33;54.07;;;;;;;;;;5156114;27;20441;-72
2021/12/10 09:17:13;;;;;;;78.17;54.53;;;;;;;;;;5152425;27;20455;-73
2021/12/10 09:19:43;;;;;;;89.90;55.37;;;;;;;;;;5156428;27;20535;-73
2021/12/10 09:22:11;;;;;;;90.00;58.87;;;;;;;;;;5157172;27;20851;-73
2021/12/10 09:24:42;;;;;;;89.50;59.10;;;;;;;;;;5156483;27;20725;-73
2021/12/10 09:27:10;;;;;;;87.60;56.43;;;;;;;;;;5156776;27;20463;-74
2021/12/10 09:29:39;;;;;;;84.73;52.10;;;;;;;;;;5154780;27;20477;-74
2021/12/10 09:32:16;;;;;;;96.33;53.60;;;;;;;;;;5156290;27;21031;-74
2021/12/10 09:34:47;;;;;;;90.80;51.97;;;;;;;;;;5142291;27;20765;-74
2021/12/10 09:37:15;;;;;;;88.63;51.37;;;;;;;;;;5136365;27;20854;-74
2021/12/10 09:39:49;;;;;;;84.57;50.77;;;;;;;;;;5137053;27;20468;-74
2021/12/10 09:42:22;;;;;;;83.93;51.47;;;;;;;;;;5137204;27;20465;-74
2021/12/10 09:44:54;;;;;;;85.93;50.73;;;;;;;;;;5147360;27;20610;-74
2021/12/10 09:47:25;;;;;;;90.50;52.07;;;;;;;;;;5155880;27;20789;-74
2021/12/10 09:49:57;;;;;;;86.03;52.33;;;;;;;;;;5156316;27;20477;-73
2021/12/10 09:52:27;;;;;;;101.70;53.60;;;;;;;;;;5154861;27;20461;-74
2021/12/10 09:54:55;;;;;;;95.40;55.53;;;;;;;;;;5156125;27;20950;-74
2021/12/10 09:57:26;;;;;;;90.70;55.13;;;;;;;;;;5155938;27;20453;-75
2021/12/10 09:59:55;;;;;;;89.90;51.27;;;;;;;;;;5157278;27;20524;-74
2021/12/10 10:02:25;;;;;;;95.60;53.13;;;;;;;;;;5144687;27;20518;-74
2021/12/10 10:05:01;;;;;;;98.53;57.20;;;;;;;;;;5153635;27;20457;-77
2021/12/10 10:07:39;;;;;;;108.90;58.20;;;;;;;;;;5154721;27;20510;-73
2021/12/10 10:10:13;;;;;;;102.77;56.50;;;;;;;;;;5154868;27;20767;-74
2021/12/10 10:12:43;;;;;;;99.67;55.83;;;;;;;;;;5155436;27;20531;-74
2021/12/10 10:15:14;;;;;;;94.03;52.73;;;;;;;;;;5151689;27;20438;-74
2021/12/10 10:17:43;;;;;;;96.13;55.80;;;;;;;;;;5151298;27;20536;-73
2021/12/10 10:20:13;;;;;;;96.20;57.73;;;;;;;;;;5150775;27;20445;-73
2021/12/10 10:22:44;;;;;;;104.20;56.10;;;;;;;;;;5156051;27;20461;-72
2021/12/10 10:25:15;;;;;;;105.17;60.60;;;;;;;;;;5157622;27;20463;-74
2021/12/10 10:27:45;;;;;;;110.13;59.30;;;;;;;;;;5161249;27;20445;-74
2021/12/10 10:30:17;;;;;;;93.50;55.00;;;;;;;;;;5159983;27;20896;-73
2021/12/10 10:32:50;;;;;;;101.23;58.43;;;;;;;;;;5154072;27;20465;-73
2021/12/10 10:35:23;;;;;;;109.90;61.63;;;;;;;;;;5153139;27;20555;-73
2021/12/10 10:38:00;;;;;;;112.27;58.70;;;;;;;;;;5146958;27;20548;-72
2021/12/10 10:41:21;;;;;;;100.87;58.70;;;;;;;;;;5157297;27;20468;-75
2021/12/10 10:43:50;;;;;;;106.17;63.07;;;;;;;;;;5147796;27;20452;-74
2021/12/10 10:46:18;;;;;;;109.90;63.23;;;;;;;;;;5155407;27;20509;-74
2021/12/10 10:48:51;;;;;;;108.63;63.27;;;;;;;;;;5158448;27;20457;-75
2021/12/10 10:51:28;;;;;;;94.80;58.40;;;;;;;;;;5151060;27;20472;-78
2021/12/10 10:53:58;;;;;;;100.67;59.70;;;;;;;;;;5148643;27;20462;-74
2021/12/10 10:56:39;;;;;;;94.73;57.67;;;;;;;;;;5151304;27;20453;-73
2021/12/10 10:59:13;;;;;;;95.37;56.93;;;;;;;;;;5159253;27;20445;-73
2021/12/10 11:01:46;;;;;;;104.43;59.07;;;;;;;;;;5158331;27;20883;-74
2021/12/10 11:04:25;;;;;;;97.77;60.43;;;;;;;;;;5151107;27;20473;-74
2021/12/10 11:06:55;;;;;;;99.00;59.70;;;;;;;;;;5153502;27;20483;-72
2021/12/10 11:09:24;;;;;;;98.70;60.63;;;;;;;;;;5155035;27;20465;-73
2021/12/10 11:12:27;;;;;;;96.00;54.10;;;;;;;;;;5158693;27;20483;-73
2021/12/10 11:14:57;;;;;;;98.90;55.80;;;;;;;;;;5152302;27;20469;-74
2021/12/10 11:17:29;;;;;;;94.43;56.60;;;;;;;;;;5155993;27;20445;-73
2021/12/10 11:20:07;;;;;;;102.70;59.80;;;;;;;;;;5143663;27;20442;-73
2021/12/10 11:22:42;;;;;;;96.80;54.53;;;;;;;;;;5153927;27;20455;-74
2021/12/10 11:25:17;;;;;;;89.73;50.67;;;;;;;;;;5154938;27;20465;-75
2021/12/10 11:30:41;;;;;;;96.53;56.60;;;;;;;;;;5078214;28;20464;-75
2021/12/10 11:33:16;;;;;;;97.53;61.10;;;;;;;;;;5073303;28;21099;-74
2021/12/10 11:35:48;;;;;;;88.03;56.70;;;;;;;;;;5113738;27;20555;-74
2021/12/10 11:38:16;;;;;;;114.37;63.10;;;;;;;;;;5144717;27;20449;-73
2021/12/10 11:40:56;;;;;;;108.47;57.37;;;;;;;;;;5152591;27;20453;-72
2021/12/10 11:46:44;;;;;;;83.70;54.40;;;;;;;;;;5125335;27;20876;-72
2021/12/10 11:49:15;;;;;;;80.93;53.97;;;;;;;;;;5154121;27;20552;-73
2021/12/10 11:51:53;;;;;;;102.97;61.77;;;;;;;;;;5148897;27;20476;-72
2021/12/10 11:54:32;;;;;;;116.00;65.40;;;;;;;;;;5142691;27;20524;-72
2021/12/10 11:57:08;;;;;;;114.77;61.70;;;;;;;;;;5157713;27;20489;-73
2021/12/10 11:59:41;;;;;;;109.40;60.73;;;;;;;;;;5154153;27;20466;-73
2021/12/10 12:02:10;;;;;;;107.63;55.30;;;;;;;;;;5156779;27;20460;-74
2021/12/10 12:04:41;;;;;;;99.43;58.57;;;;;;;;;;5142760;27;20645;-74
2021/12/10 12:07:21;;;;;;;109.90;60.23;;;;;;;;;;5144968;27;20452;-73
2021/12/10 12:09:49;;;;;;;107.63;56.83;;;;;;;;;;5158098;27;20456;-73
2021/12/10 12:12:18;;;;;;;120.27;59.67;;;;;;;;;;5138981;27;20449;-73
2021/12/10 12:14:53;;;;;;;113.40;62.30;;;;;;;;;;5155563;27;20449;-72
2021/12/10 12:20:34;;;;;;;114.03;64.30;;;;;;;;;;5046173;28;20581;-73
2021/12/10 12:26:20;;;;;;;101.07;58.97;;;;;;;;;;4982689;28;20544;-72
2021/12/10 12:29:19;;;;;;;120.63;66.30;;;;;;;;;;4988803;28;20460;-74
2021/12/10 12:31:59;;;;;;;120.57;62.87;;;;;;;;;;5054860;28;20563;-74
2021/12/10 12:34:28;;;;;;;123.87;66.00;;;;;;;;;;5068503;28;20458;-74
2021/12/10 12:36:57;;;;;;;127.13;64.90;;;;;;;;;;5111436;27;20455;-74
2021/12/10 12:39:34;;;;;;;121.80;61.27;;;;;;;;;;5145227;27;20453;-74
2021/12/10 12:42:05;;;;;;;118.17;62.87;;;;;;;;;;5145166;27;20545;-74
2021/12/10 12:44:41;;;;;;;114.03;61.80;;;;;;;;;;5154340;27;20536;-74
2021/12/10 12:47:12;;;;;;;95.13;56.37;;;;;;;;;;5156631;27;21124;-74
2021/12/10 12:50:00;;;;;;;96.57;56.60;;;;;;;;;;5156042;27;20912;-74
2021/12/10 12:52:30;;;;;;;100.63;59.10;;;;;;;;;;5147947;27;20801;-74
2021/12/10 12:55:15;;;;;;;94.07;55.20;;;;;;;;;;5156765;27;20448;-74
2021/12/10 12:57:46;;;;;;;89.20;54.20;;;;;;;;;;5156365;27;20436;-74
2021/12/10 13:00:18;;;;;;;91.47;58.77;;;;;;;;;;5157347;27;20543;-74
2021/12/10 13:02:49;;;;;;;87.63;53.33;;;;;;;;;;5157291;27;20472;-73
2021/12/10 13:05:19;;;;;;;85.03;53.97;;;;;;;;;;5156281;27;20858;-74
2021/12/10 13:07:47;;;;;;;95.60;57.00;;;;;;;;;;5156728;27;20433;-74
2021/12/10 13:10:20;;;;;;;96.43;64.33;;;;;;;;;;5155671;27;20441;-74
2021/12/10 13:13:06;;;;;;;89.60;56.33;;;;;;;;;;5155736;27;20521;-74
2021/12/10 13:15:34;;;;;;;97.50;55.60;;;;;;;;;;5155297;27;20476;-75
2021/12/10 13:18:06;;;;;;;100.70;61.07;;;;;;;;;;5156777;27;20471;-74
2021/12/10 13:20:36;;;;;;;88.53;54.80;;;;;;;;;;5152675;27;20452;-74
2021/12/10 13:23:10;;;;;;;115.90;67.53;;;;;;;;;;5155718;27;20448;-74
2021/12/10 13:25:44;;;;;;;90.60;55.93;;;;;;;;;;5156865;27;20487;-74
2021/12/10 13:28:19;;;;;;;99.97;59.50;;;;;;;;;;5156366;27;20724;-73
2021/12/10 13:30:48;;;;;;;111.73;71.17;;;;;;;;;;5157586;27;20468;-74
2021/12/10 13:33:26;;;;;;;105.57;65.33;;;;;;;;;;5147398;27;20449;-72
2021/12/10 13:38:52;;;;;;;95.80;56.40;;;;;;;;;;5143691;27;20440;-74
2021/12/10 13:41:33;;;;;;;100.23;58.60;;;;;;;;;;5141978;27;20485;-75
2021/12/10 13:44:09;;;;;;;96.40;59.93;;;;;;;;;;5144270;27;20453;-74
2021/12/10 13:52:51;;;;;;;95.97;58.60;;;;;;;;;;5135792;27;20954;-74
2021/12/10 13:55:23;;;;;;;108.53;58.97;;;;;;;;;;5142094;27;20548;-74
2021/12/10 13:58:16;;;;;;;99.23;62.60;;;;;;;;;;5153202;27;20528;-75
2021/12/10 14:00:47;;;;;;;96.20;53.93;;;;;;;;;;5144683;27;20532;-73
2021/12/10 14:03:16;;;;;;;94.03;54.60;;;;;;;;;;5145340;27;20868;-73
2021/12/10 14:05:49;;;;;;;93.43;53.47;;;;;;;;;;5148574;27;20789;-74
2021/12/10 14:08:18;;;;;;;102.93;56.60;;;;;;;;;;5139657;27;20445;-73
2021/12/10 14:10:56;;;;;;;103.30;54.87;;;;;;;;;;5142796;27;20566;-73
2021/12/10 14:13:28;;;;;;;76.90;49.40;;;;;;;;;;5153728;27;20765;-74
2021/12/10 14:16:05;;;;;;;95.97;57.80;;;;;;;;;;5154182;27;20473;-73
2021/12/10 14:18:44;;;;;;;94.57;52.03;;;;;;;;;;5155417;27;20731;-73
2021/12/10 14:21:13;;;;;;;104.60;55.03;;;;;;;;;;5151263;27;20445;-73
2021/12/10 14:23:43;;;;;;;109.67;63.63;;;;;;;;;;5136193;27;20466;-74
2021/12/10 14:26:17;;;;;;;103.20;61.23;;;;;;;;;;5154988;27;20453;-74
2021/12/10 14:28:46;;;;;;;95.60;52.37;;;;;;;;;;5136182;27;20810;-74
2021/12/10 14:31:20;;;;;;;101.07;57.83;;;;;;;;;;5150307;27;20519;-73
2021/12/10 14:33:49;;;;;;;106.93;56.27;;;;;;;;;;5155527;27;20959;-73
2021/12/10 14:36:22;;;;;;;119.67;61.77;;;;;;;;;;5156658;27;21066;-73
2021/12/10 14:38:52;;;;;;;114.33;60.83;;;;;;;;;;5155648;27;20501;-74
2021/12/10 14:41:24;;;;;;;115.57;58.97;;;;;;;;;;5155220;27;20812;-74
2021/12/10 14:44:00;;;;;;;115.13;59.37;;;;;;;;;;5155368;27;20509;-74
2021/12/10 14:46:37;;;;;;;131.60;68.60;;;;;;;;;;5154866;27;20451;-73
2021/12/10 14:49:10;;;;;;;122.70;59.50;;;;;;;;;;5154718;27;20926;-73
2021/12/10 14:51:41;;;;;;;141.07;64.87;;;;;;;;;;5153797;27;20473;-73
2021/12/10 14:54:10;;;;;;;161.73;68.10;;;;;;;;;;5145843;27;20445;-76
2021/12/10 14:56:39;;;;;;;179.43;68.73;;;;;;;;;;5155920;27;20850;-73
2021/12/10 14:59:17;;;;;;;278.63;87.80;;;;;;;;;;5154168;27;20460;-75
2021/12/10 15:01:49;;;;;;;369.73;94.63;;;;;;;;;;5155959;27;20437;-74
2021/12/10 15:04:29;;;;;;;206.67;75.43;;;;;;;;;;5149550;27;20469;-72